createdAt,value
2019-03-23T00:01:56.379Z,61.00
2019-03-23T00:04:25.402Z,61.26
2019-03-23T00:06:53.239Z,61.55
2019-03-23T00:09:20.804Z,61.42
2019-03-23T00:11:48.477Z,61.15
2019-03-23T00:14:18.364Z,61.54
2019-03-23T00:16:45.927Z,61.31
2019-03-23T00:19:13.231Z,61.94
2019-03-23T00:21:40.485Z,61.77
2019-03-23T00:24:07.787Z,61.68
2019-03-23T00:26:35.059Z,61.12
2019-03-23T00:29:02.509Z,61.16
2019-03-23T00:31:29.955Z,61.61
2019-03-23T00:33:57.238Z,61.33
2019-03-23T00:36:24.479Z,61.81
2019-03-23T00:38:51.933Z,61.72
2019-03-23T00:41:19.191Z,62.14
2019-03-23T00:43:46.899Z,62.54
2019-03-23T00:46:14.309Z,62.41
2019-03-23T00:48:42.002Z,62.27
2019-03-23T00:51:09.294Z,63.03
2019-03-23T00:53:36.558Z,62.98
2019-03-23T00:56:03.875Z,63.18
2019-03-23T00:58:31.131Z,63.09
2019-03-23T01:00:58.516Z,63.21
2019-03-23T01:03:27.855Z,63.04
2019-03-23T01:05:55.123Z,63.06
2019-03-23T01:08:22.673Z,63.33
2019-03-23T01:10:50.052Z,63.07
2019-03-23T01:13:17.570Z,63.65
2019-03-23T01:15:48.224Z,63.95
2019-03-23T01:18:16.440Z,64.19
2019-03-23T01:20:49.579Z,65.51
2019-03-23T01:23:15.431Z,65.52
2019-03-23T01:25:42.728Z,65.33
2019-03-23T01:28:10.113Z,64.51
2019-03-23T01:30:37.655Z,64.91
2019-03-23T01:33:05.063Z,64.43
2019-03-23T01:35:32.570Z,64.28
2019-03-23T01:37:59.990Z,64.43
2019-03-23T01:40:27.588Z,64.43
2019-03-23T01:42:54.995Z,64.91
2019-03-23T01:45:22.401Z,64.75
2019-03-23T01:47:49.740Z,64.75
2019-03-23T01:50:17.393Z,65.03
2019-03-23T01:52:44.706Z,64.98
2019-03-23T01:55:13.973Z,65.08
2019-03-23T01:57:42.417Z,64.87
2019-03-23T02:00:09.783Z,64.82
2019-03-23T02:02:37.049Z,64.11
2019-03-23T02:05:05.368Z,64.51
2019-03-23T02:07:32.771Z,64.32
2019-03-23T02:10:00.037Z,64.16
2019-03-23T02:12:27.317Z,65.60
2019-03-23T02:14:54.572Z,65.96
2019-03-23T02:17:22.182Z,66.11
2019-03-23T02:19:50.074Z,65.89
2019-03-23T02:22:17.457Z,66.03
2019-03-23T02:24:47.093Z,65.05
2019-03-23T02:27:14.376Z,66.52
2019-03-23T02:29:42.054Z,66.52
2019-03-23T02:32:09.737Z,66.31
2019-03-23T02:34:36.983Z,66.21
2019-03-23T02:37:04.285Z,65.82
2019-03-23T02:39:31.815Z,65.82
2019-03-23T02:41:59.219Z,65.65
2019-03-23T02:44:26.718Z,65.65
2019-03-23T02:46:53.978Z,66.08
2019-03-23T02:49:21.325Z,66.08
2019-03-23T02:51:48.636Z,65.71
2019-03-23T02:54:17.450Z,65.71
2019-03-23T02:56:44.825Z,66.49
2019-03-23T02:59:12.307Z,66.13
2019-03-23T03:01:39.553Z,66.02
2019-03-23T03:04:06.928Z,66.12
2019-03-23T03:06:34.381Z,65.73
2019-03-23T03:09:01.702Z,65.73
2019-03-23T03:11:29.148Z,67.14
2019-03-23T03:13:56.427Z,66.51
2019-03-23T03:16:27.491Z,66.51
2019-03-23T03:18:54.993Z,66.48
2019-03-23T03:21:23.581Z,66.54
2019-03-23T03:23:50.972Z,66.68
2019-03-23T03:26:18.593Z,66.68
2019-03-23T03:28:45.918Z,67.55
2019-03-23T03:31:13.197Z,67.68
2019-03-23T03:33:40.519Z,67.58
2019-03-23T03:36:07.771Z,66.85
2019-03-23T03:38:35.668Z,66.85
2019-03-23T03:41:02.947Z,67.69
2019-03-23T03:43:30.239Z,67.69
2019-03-23T03:46:00.013Z,67.97
2019-03-23T03:48:27.243Z,67.20
2019-03-23T03:50:54.537Z,67.20
2019-03-23T03:53:24.745Z,67.22
2019-03-23T03:55:52.096Z,67.61
2019-03-23T03:58:22.306Z,67.61
2019-03-23T04:00:49.715Z,66.93
2019-03-23T04:03:17.090Z,66.93
2019-03-23T04:05:46.626Z,66.92
2019-03-23T04:08:15.622Z,66.72
2019-03-23T04:10:42.914Z,67.49
2019-03-23T04:13:10.158Z,67.22
2019-03-23T04:15:37.688Z,67.36
2019-03-23T04:18:04.965Z,67.36
2019-03-23T04:20:32.246Z,67.37
2019-03-23T04:22:59.634Z,67.63
2019-03-23T04:25:29.885Z,68.05
2019-03-23T04:27:57.159Z,68.05
2019-03-23T04:30:24.552Z,67.92
2019-03-23T04:32:51.810Z,68.31
2019-03-23T04:35:19.083Z,68.31
2019-03-23T04:37:46.469Z,68.81
2019-03-23T04:40:14.197Z,69.31
2019-03-23T04:42:41.521Z,68.41
2019-03-23T04:45:08.890Z,68.41
2019-03-23T04:47:37.163Z,68.35
2019-03-23T04:50:04.909Z,68.55
2019-03-23T04:52:32.261Z,68.23
2019-03-23T04:54:59.670Z,68.23
2019-03-23T04:57:26.962Z,67.41
2019-03-23T04:59:54.263Z,67.92
2019-03-23T05:02:21.655Z,68.68
2019-03-23T05:04:48.943Z,69.14
2019-03-23T05:07:16.598Z,68.95
2019-03-23T05:09:43.888Z,68.95
2019-03-23T05:12:11.494Z,68.86
2019-03-23T05:14:38.784Z,68.85
2019-03-23T05:17:06.040Z,68.63
2019-03-23T05:19:33.672Z,68.89
2019-03-23T05:22:08.140Z,68.89
2019-03-23T05:24:35.550Z,69.14
2019-03-23T05:27:02.928Z,69.14
2019-03-23T05:29:30.236Z,69.46
2019-03-23T05:31:57.612Z,69.52
2019-03-23T05:34:24.905Z,69.52
2019-03-23T05:36:52.180Z,69.45
2019-03-23T05:39:19.542Z,69.46
2019-03-23T05:41:46.849Z,69.96
2019-03-23T05:44:14.172Z,69.71
2019-03-23T05:46:42.776Z,69.71
2019-03-23T05:49:10.170Z,69.13
2019-03-23T05:51:37.603Z,68.72
2019-03-23T05:54:04.904Z,69.27
2019-03-23T05:56:32.203Z,69.27
2019-03-23T05:58:59.696Z,69.65
2019-03-23T06:01:27.152Z,69.33
2019-03-23T06:03:54.450Z,68.86
2019-03-23T06:06:22.132Z,69.89
2019-03-23T06:08:54.908Z,69.89
2019-03-23T06:11:18.988Z,69.99
2019-03-23T06:13:47.443Z,70.27
2019-03-23T06:16:14.842Z,70.27
2019-03-23T06:18:42.136Z,70.38
2019-03-23T06:21:09.430Z,70.22
2019-03-23T06:23:36.776Z,69.68
2019-03-23T06:26:06.418Z,70.09
2019-03-23T06:28:34.460Z,69.92
2019-03-23T06:31:01.736Z,69.47
2019-03-23T06:33:29.002Z,69.24
2019-03-23T06:35:56.323Z,69.86
2019-03-23T06:38:23.640Z,69.94
2019-03-23T06:40:50.948Z,69.35
2019-03-23T06:43:18.250Z,69.27
2019-03-23T06:45:45.717Z,68.73
2019-03-23T06:48:13.014Z,68.03
2019-03-23T06:50:40.770Z,68.03
2019-03-23T06:53:08.070Z,67.77
2019-03-23T06:55:35.436Z,67.77
2019-03-23T06:58:02.842Z,68.15
2019-03-23T07:00:30.354Z,67.64
2019-03-23T07:02:57.650Z,67.41
2019-03-23T07:05:24.952Z,67.01
2019-03-23T07:07:52.224Z,67.14
2019-03-23T07:10:19.645Z,66.42
2019-03-23T07:12:46.914Z,66.68
2019-03-23T07:15:20.010Z,65.80
2019-03-23T07:17:44.167Z,65.80
2019-03-23T07:20:11.577Z,65.47
2019-03-23T07:22:38.991Z,65.47
2019-03-23T07:25:08.454Z,65.63
2019-03-23T07:27:36.574Z,65.30
2019-03-23T07:30:05.799Z,64.61
2019-03-23T07:32:33.050Z,64.28
2019-03-23T07:35:00.437Z,64.28
2019-03-23T07:37:27.716Z,63.68
2019-03-23T07:39:55.091Z,63.99
2019-03-23T07:42:22.387Z,63.99
2019-03-23T07:44:49.635Z,63.39
2019-03-23T07:47:17.000Z,62.95
2019-03-23T07:49:44.632Z,62.74
2019-03-23T07:52:11.909Z,62.28
2019-03-23T07:54:39.215Z,62.05
2019-03-23T07:57:06.509Z,61.21
2019-03-23T07:59:33.814Z,61.05
2019-03-23T08:02:02.032Z,60.76
2019-03-23T08:04:29.315Z,60.80
2019-03-23T08:06:56.673Z,60.27
2019-03-23T08:09:23.993Z,59.54
2019-03-23T08:11:51.389Z,59.15
2019-03-23T08:14:19.892Z,59.24
2019-03-23T08:16:47.415Z,58.75
2019-03-23T08:19:14.854Z,58.46
2019-03-23T08:21:42.125Z,57.95
2019-03-23T08:24:09.461Z,57.74
2019-03-23T08:26:36.827Z,57.86
2019-03-23T08:29:04.244Z,58.16
2019-03-23T08:31:31.638Z,58.45
2019-03-23T08:34:00.389Z,58.24
2019-03-23T08:36:27.775Z,57.59
2019-03-23T08:38:56.138Z,56.94
2019-03-23T08:41:23.779Z,56.75
2019-03-23T08:43:52.713Z,56.07
2019-03-23T08:46:22.590Z,55.66
2019-03-23T08:48:50.293Z,55.55
2019-03-23T08:51:18.528Z,54.76
2019-03-23T08:53:45.989Z,54.60
2019-03-23T08:56:13.687Z,53.70
2019-03-23T08:58:39.681Z,54.03
2019-03-23T09:01:06.942Z,53.75
2019-03-23T09:03:34.217Z,53.57
2019-03-23T09:06:01.655Z,53.51
2019-03-23T09:08:29.497Z,53.89
2019-03-23T09:10:56.768Z,53.36
2019-03-23T09:13:24.168Z,53.11
2019-03-23T09:15:51.693Z,53.17
2019-03-23T09:18:23.143Z,52.91
2019-03-23T09:20:52.917Z,52.64
2019-03-23T09:23:22.755Z,52.52
2019-03-23T09:25:50.113Z,52.60
2019-03-23T09:28:18.627Z,52.47
2019-03-23T09:30:47.999Z,51.96
2019-03-23T09:33:15.442Z,52.12
2019-03-23T09:35:42.957Z,51.59
2019-03-23T09:38:10.784Z,51.36
2019-03-23T09:40:40.341Z,51.44
2019-03-23T09:43:07.643Z,50.93
2019-03-23T09:45:34.933Z,51.05
2019-03-23T09:48:02.278Z,50.69
2019-03-23T09:50:29.607Z,50.52
2019-03-23T09:53:01.073Z,49.91
2019-03-23T09:55:28.796Z,49.68
2019-03-23T09:57:56.305Z,49.23
2019-03-23T10:00:23.766Z,49.64
2019-03-23T10:02:51.289Z,49.63
2019-03-23T10:05:18.547Z,49.84
2019-03-23T10:07:45.836Z,49.94
2019-03-23T10:10:21.340Z,49.93
2019-03-23T10:12:44.607Z,50.07
2019-03-23T10:15:12.119Z,49.51
2019-03-23T10:17:39.805Z,49.10
2019-03-23T10:20:07.448Z,48.85
2019-03-23T10:22:35.045Z,48.69
2019-03-23T10:25:04.719Z,48.30
2019-03-23T10:27:32.507Z,48.16
2019-03-23T10:29:59.901Z,48.16
2019-03-23T10:32:27.646Z,48.10
2019-03-23T10:34:57.121Z,47.56
2019-03-23T10:37:26.114Z,46.50
2019-03-23T10:39:53.676Z,47.11
2019-03-23T10:42:21.029Z,46.26
2019-03-23T10:44:48.593Z,46.13
2019-03-23T10:47:21.056Z,45.55
2019-03-23T10:49:50.999Z,44.51
2019-03-23T10:52:18.976Z,45.27
2019-03-23T10:54:57.376Z,45.32
2019-03-23T10:57:25.228Z,45.24
2019-03-23T10:59:52.588Z,44.70
2019-03-23T11:02:19.896Z,44.47
2019-03-23T11:04:47.297Z,44.14
2019-03-23T11:07:15.500Z,44.02
2019-03-23T11:09:43.289Z,43.63
2019-03-23T11:12:17.109Z,43.71
2019-03-23T11:14:47.912Z,43.49
2019-03-23T11:17:16.245Z,42.78
2019-03-23T11:19:46.661Z,42.60
2019-03-23T11:22:25.125Z,41.53
2019-03-23T11:24:55.373Z,40.82
2019-03-23T11:27:23.013Z,39.89
2019-03-23T11:29:52.985Z,40.08
2019-03-23T11:32:27.653Z,39.53
2019-03-23T11:35:00.903Z,39.22
2019-03-23T11:37:31.341Z,39.42
2019-03-23T11:40:03.575Z,39.26
2019-03-23T11:42:31.501Z,37.40
2019-03-23T11:44:59.467Z,38.26
2019-03-23T11:47:31.283Z,39.13
2019-03-23T11:50:07.305Z,38.85
2019-03-23T11:52:39.841Z,38.68
2019-03-23T11:55:12.412Z,38.04
2019-03-23T11:57:44.469Z,38.09
2019-03-23T12:00:17.072Z,38.24
2019-03-23T12:02:44.691Z,38.77
2019-03-23T12:05:12.076Z,38.55
2019-03-23T12:07:42.613Z,37.92
2019-03-23T12:10:20.477Z,38.18
2019-03-23T12:12:54.899Z,37.12
2019-03-23T12:15:24.899Z,36.23
2019-03-23T12:17:52.594Z,35.92
2019-03-23T12:20:22.863Z,36.10
2019-03-23T12:22:57.933Z,37.01
2019-03-23T12:25:28.972Z,37.45
2019-03-23T12:28:09.100Z,37.20
2019-03-23T12:30:39.066Z,36.17
2019-03-23T12:33:10.209Z,35.36
2019-03-23T12:35:38.878Z,34.79
2019-03-23T12:38:06.241Z,34.45
2019-03-23T12:40:33.635Z,34.18
2019-03-23T12:43:04.273Z,34.12
2019-03-23T12:45:32.861Z,34.35
2019-03-23T12:48:06.593Z,35.01
2019-03-23T12:50:36.486Z,35.09
2019-03-23T12:53:06.949Z,35.23
2019-03-23T12:55:43.063Z,34.55
2019-03-23T12:58:22.854Z,34.09
2019-03-23T13:01:01.893Z,33.93
2019-03-23T13:03:39.350Z,33.57
2019-03-23T13:06:17.071Z,33.45
2019-03-23T13:08:47.379Z,33.46
2019-03-23T13:11:23.286Z,32.47
2019-03-23T13:13:45.335Z,32.43
2019-03-23T13:16:12.573Z,32.38
2019-03-23T13:18:39.874Z,32.20
2019-03-23T13:21:07.811Z,31.43
2019-03-23T13:23:35.367Z,31.33
2019-03-23T13:26:03.451Z,31.79
2019-03-23T13:28:30.778Z,31.52
2019-03-23T13:30:59.997Z,32.05
2019-03-23T13:33:27.274Z,31.03
2019-03-23T13:35:54.638Z,30.89
2019-03-23T13:38:21.995Z,30.45
2019-03-23T13:40:49.297Z,29.91
2019-03-23T13:43:16.550Z,30.45
2019-03-23T13:45:43.940Z,29.32
2019-03-23T13:48:11.432Z,29.50
2019-03-23T13:50:38.708Z,28.95
2019-03-23T13:53:06.018Z,29.13
2019-03-23T13:55:33.730Z,29.72
2019-03-23T13:58:08.613Z,29.82
2019-03-23T14:00:35.972Z,29.60
2019-03-23T14:03:03.641Z,29.75
2019-03-23T14:05:30.897Z,29.89
2019-03-23T14:07:58.276Z,30.38
2019-03-23T14:10:28.012Z,28.82
2019-03-23T14:12:55.431Z,29.34
2019-03-23T14:15:23.494Z,29.60
2019-03-23T14:17:50.780Z,29.10
2019-03-23T14:20:20.460Z,28.81
2019-03-23T14:22:47.635Z,28.64
2019-03-23T14:25:14.884Z,28.86
2019-03-23T14:27:42.175Z,28.68
2019-03-23T14:30:09.475Z,28.42
2019-03-23T14:32:36.753Z,28.38
2019-03-23T14:35:04.324Z,29.00
2019-03-23T14:37:31.742Z,29.18
2019-03-23T14:39:58.997Z,29.21
2019-03-23T14:42:26.969Z,28.92
2019-03-23T14:44:57.519Z,28.20
2019-03-23T14:47:24.797Z,28.52
2019-03-23T14:49:52.134Z,29.52
2019-03-23T14:52:19.707Z,30.32
2019-03-23T14:54:46.979Z,31.03
2019-03-23T14:57:14.991Z,30.79
2019-03-23T14:59:42.756Z,30.36
2019-03-23T15:02:10.408Z,30.61
2019-03-23T15:04:37.897Z,30.85
2019-03-23T15:07:05.378Z,29.79
2019-03-23T15:09:33.132Z,30.65
2019-03-23T15:12:02.818Z,30.59
2019-03-23T15:14:30.557Z,29.79
2019-03-23T15:17:00.100Z,29.88
2019-03-23T15:19:27.686Z,29.92
2019-03-23T15:21:55.161Z,29.11
2019-03-23T15:24:22.982Z,29.76
2019-03-23T15:26:53.179Z,29.47
2019-03-23T15:29:22.572Z,30.72
2019-03-23T15:31:50.074Z,31.22
2019-03-23T15:34:17.866Z,31.75
2019-03-23T15:36:45.135Z,33.22
2019-03-23T15:39:12.392Z,34.68
2019-03-23T15:41:39.930Z,36.20
2019-03-23T15:44:07.201Z,37.00
2019-03-23T15:46:34.494Z,38.47
2019-03-23T15:49:01.753Z,38.74
2019-03-23T15:51:29.120Z,39.35
2019-03-23T15:53:58.522Z,39.64
2019-03-23T15:56:25.869Z,39.75
2019-03-23T15:58:53.145Z,40.06
2019-03-23T16:01:23.308Z,40.35
2019-03-23T16:03:50.621Z,40.76
2019-03-23T16:06:18.158Z,41.24
2019-03-23T16:08:45.547Z,41.95
2019-03-23T16:11:12.804Z,42.08
2019-03-23T16:13:40.604Z,41.44
2019-03-23T16:16:08.018Z,41.15
2019-03-23T16:18:35.422Z,41.84
2019-03-23T16:21:02.804Z,42.09
2019-03-23T16:23:30.450Z,42.61
2019-03-23T16:25:57.771Z,42.85
2019-03-23T16:28:25.366Z,43.12
2019-03-23T16:30:52.716Z,43.29
2019-03-23T16:33:21.924Z,44.43
2019-03-23T16:35:49.583Z,45.21
2019-03-23T16:38:16.933Z,45.56
2019-03-23T16:40:44.785Z,46.41
2019-03-23T16:43:12.156Z,46.80
2019-03-23T16:45:39.929Z,46.93
2019-03-23T16:48:07.230Z,47.01
2019-03-23T16:50:34.708Z,46.86
2019-03-23T16:53:01.990Z,46.74
2019-03-23T16:55:29.236Z,46.82
2019-03-23T16:57:56.492Z,47.08
2019-03-23T17:00:34.212Z,47.43
2019-03-23T17:03:02.504Z,47.55
2019-03-23T17:05:30.488Z,46.66
2019-03-23T17:07:57.776Z,46.35
2019-03-23T17:10:25.460Z,47.42
2019-03-23T17:12:55.527Z,48.08
2019-03-23T17:15:21.914Z,48.71
2019-03-23T17:17:49.163Z,48.80
2019-03-23T17:20:16.471Z,49.11
2019-03-23T17:22:43.786Z,49.18
2019-03-23T17:25:11.035Z,49.51
2019-03-23T17:27:39.578Z,50.07
2019-03-23T17:30:09.557Z,50.22
2019-03-23T17:32:39.646Z,50.44
2019-03-23T17:35:07.027Z,50.83
2019-03-23T17:37:34.324Z,51.08
2019-03-23T17:40:01.650Z,50.83
2019-03-23T17:42:28.946Z,51.09
2019-03-23T17:44:56.224Z,50.75
2019-03-23T17:47:23.490Z,50.63
2019-03-23T17:49:50.762Z,50.96
2019-03-23T17:52:18.046Z,51.44
2019-03-23T17:54:45.290Z,50.98
2019-03-23T17:57:12.549Z,50.96
2019-03-23T17:59:39.868Z,51.82
2019-03-23T18:02:07.406Z,52.16
2019-03-23T18:04:36.761Z,52.46
2019-03-23T18:07:05.379Z,52.03
2019-03-23T18:09:33.089Z,52.27
2019-03-23T18:12:03.806Z,52.47
2019-03-23T18:14:31.542Z,52.76
2019-03-23T18:16:58.788Z,52.90
2019-03-23T18:19:26.774Z,53.48
2019-03-23T18:21:54.582Z,52.97
2019-03-23T18:24:22.014Z,53.42
2019-03-23T18:26:49.619Z,53.51
2019-03-23T18:29:16.866Z,53.37
2019-03-23T18:31:44.452Z,53.39
2019-03-23T18:34:12.066Z,53.68
2019-03-23T18:36:39.539Z,54.12
2019-03-23T18:39:07.376Z,54.54
2019-03-23T18:41:38.038Z,54.58
2019-03-23T18:44:15.609Z,54.49
2019-03-23T18:46:38.816Z,54.54
2019-03-23T18:49:06.026Z,54.75
2019-03-23T18:51:33.467Z,54.55
2019-03-23T18:54:00.742Z,54.48
2019-03-23T18:56:29.385Z,54.38
2019-03-23T18:58:57.116Z,54.84
2019-03-23T19:01:27.589Z,54.73
2019-03-23T19:03:56.448Z,54.83
2019-03-23T19:06:24.257Z,54.79
2019-03-23T19:08:51.548Z,55.24
2019-03-23T19:11:28.633Z,55.10
2019-03-23T19:13:56.091Z,54.79
2019-03-23T19:16:25.069Z,54.89
2019-03-23T19:18:52.516Z,55.45
2019-03-23T19:21:23.497Z,56.15
2019-03-23T19:23:54.173Z,56.38
2019-03-23T19:26:23.104Z,56.98
2019-03-23T19:28:50.540Z,57.08
2019-03-23T19:31:21.052Z,57.26
2019-03-23T19:33:51.142Z,57.50
2019-03-23T19:36:20.548Z,57.75
2019-03-23T19:38:47.858Z,58.04
2019-03-23T19:41:16.319Z,58.28
2019-03-23T19:43:49.786Z,58.35
2019-03-23T19:46:13.994Z,58.79
2019-03-23T19:48:41.244Z,58.04
2019-03-23T19:51:08.517Z,57.45
2019-03-23T19:53:36.800Z,57.27
2019-03-23T19:56:04.830Z,57.71
2019-03-23T19:58:32.213Z,57.96
2019-03-23T20:01:00.496Z,57.79
2019-03-23T20:03:30.329Z,58.11
2019-03-23T20:05:58.001Z,57.83
2019-03-23T20:08:25.732Z,58.10
2019-03-23T20:10:52.978Z,58.51
2019-03-23T20:13:29.840Z,58.72
2019-03-23T20:16:00.115Z,59.17
2019-03-23T20:18:27.568Z,59.35
2019-03-23T20:20:55.724Z,59.39
2019-03-23T20:23:25.021Z,59.58
2019-03-23T20:25:57.934Z,59.16
2019-03-23T20:28:31.088Z,58.42
2019-03-23T20:31:00.088Z,58.20
2019-03-23T20:33:27.486Z,58.03
2019-03-23T20:35:55.587Z,58.29
2019-03-23T20:38:24.293Z,58.37
2019-03-23T20:40:51.935Z,58.12
2019-03-23T20:43:19.493Z,58.04
2019-03-23T20:45:51.909Z,58.07
2019-03-23T20:48:20.235Z,57.79
2019-03-23T20:50:48.025Z,58.30
2019-03-23T20:53:26.847Z,58.30
2019-03-23T20:55:56.445Z,58.12
2019-03-23T20:58:26.257Z,58.36
2019-03-23T21:00:58.768Z,58.19
2019-03-23T21:03:28.944Z,58.32
2019-03-23T21:05:56.403Z,58.42
2019-03-23T21:08:28.749Z,58.32
2019-03-23T21:10:58.289Z,58.31
2019-03-23T21:13:25.627Z,58.34
2019-03-23T21:15:55.505Z,58.44
2019-03-23T21:18:23.674Z,58.83
2019-03-23T21:20:53.567Z,59.19
2019-03-23T21:23:22.747Z,59.58
2019-03-23T21:25:50.088Z,59.35
2019-03-23T21:28:21.865Z,59.55
2019-03-23T21:30:53.887Z,59.17
2019-03-23T21:33:32.106Z,59.10
2019-03-23T21:36:01.710Z,59.32
2019-03-23T21:38:31.539Z,60.11
2019-03-23T21:41:01.728Z,60.46
2019-03-23T21:43:32.797Z,60.58
2019-03-23T21:46:08.940Z,60.68
2019-03-23T21:48:38.739Z,60.73
2019-03-23T21:51:08.406Z,61.12
2019-03-23T21:53:38.911Z,61.04
2019-03-23T21:56:09.658Z,61.29
2019-03-23T21:58:39.334Z,61.60
2019-03-23T22:01:14.187Z,61.92
2019-03-23T22:03:44.221Z,62.34
2019-03-23T22:06:12.676Z,62.40
2019-03-23T22:08:42.363Z,62.57
2019-03-23T22:11:12.597Z,63.01
2019-03-23T22:13:46.129Z,62.85
2019-03-23T22:16:17.433Z,62.56
2019-03-23T22:18:56.912Z,62.97
2019-03-23T22:21:26.945Z,63.04
2019-03-23T22:23:55.607Z,63.11
2019-03-23T22:26:22.999Z,63.01
2019-03-23T22:28:53.479Z,63.27
2019-03-23T22:31:21.259Z,63.51
2019-03-23T22:33:50.231Z,63.28
2019-03-23T22:36:19.737Z,63.63
2019-03-23T22:38:48.823Z,63.73
2019-03-23T22:41:16.893Z,63.29
2019-03-23T22:43:44.180Z,64.16
2019-03-23T22:46:11.933Z,64.34
2019-03-23T22:48:42.346Z,64.17
2019-03-23T22:51:10.851Z,64.23
2019-03-23T22:53:40.622Z,64.41
2019-03-23T22:56:12.640Z,64.37
2019-03-23T22:58:48.527Z,65.46
2019-03-23T23:01:15.811Z,65.24
2019-03-23T23:03:44.807Z,64.18
2019-03-23T23:06:21.956Z,64.04
2019-03-23T23:08:59.197Z,63.99
2019-03-23T23:11:27.087Z,64.80
2019-03-23T23:13:54.528Z,65.03
2019-03-23T23:16:25.854Z,65.41
2019-03-23T23:18:53.235Z,65.71
2019-03-23T23:21:20.498Z,65.83
2019-03-23T23:23:47.837Z,66.22
2019-03-23T23:26:15.300Z,66.45
2019-03-23T23:28:42.734Z,66.19
2019-03-23T23:31:10.601Z,66.40
2019-03-23T23:33:38.044Z,66.56
2019-03-23T23:36:05.327Z,66.62
2019-03-23T23:38:32.656Z,66.30
2019-03-23T23:41:01.432Z,66.74
2019-03-23T23:43:28.919Z,66.92
2019-03-23T23:45:56.234Z,66.79
2019-03-23T23:48:23.550Z,66.74
2019-03-23T23:50:50.929Z,66.67
2019-03-23T23:53:18.788Z,66.85
2019-03-23T23:55:46.616Z,66.79
2019-03-23T23:58:14.105Z,66.83
